sensor_id;sensor_type;location;lat;lon;timestamp;P1;durP1;ratioP1;P2;durP2;ratioP2
77705;SDS011;66874;45.274;5.880;2023-04-25T02:01:00;3.38;;;2.20;;
77705;SDS011;66874;45.274;5.880;2023-04-25T02:03:26;3.95;;;2.60;;
77705;SDS011;66874;45.274;5.880;2023-04-25T02:05:51;3.58;;;2.83;;
77705;SDS011;66874;45.274;5.880;2023-04-25T02:08:17;4.07;;;2.17;;
77705;SDS011;66874;45.274;5.880;2023-04-25T02:10:43;2.80;;;2.35;;
77705;SDS011;66874;45.274;5.880;2023-04-25T02:13:08;3.70;;;2.10;;
77705;SDS011;66874;45.274;5.880;2023-04-25T02:15:34;5.95;;;1.90;;
77705;SDS011;66874;45.274;5.880;2023-04-25T02:18:00;4.00;;;2.00;;
77705;SDS011;66874;45.274;5.880;2023-04-25T02:20:26;3.80;;;2.00;;
77705;SDS011;66874;45.274;5.880;2023-04-25T02:22:52;4.05;;;1.85;;
77705;SDS011;66874;45.274;5.880;2023-04-25T02:25:18;7.32;;;3.88;;
77705;SDS011;66874;45.274;5.880;2023-04-25T02:27:45;7.10;;;2.40;;
77705;SDS011;66874;45.274;5.880;2023-04-25T05:31:30;7.88;;;2.95;;
77705;SDS011;66874;45.274;5.880;2023-04-25T05:33:56;7.03;;;2.60;;
77705;SDS011;66874;45.274;5.880;2023-04-25T05:36:21;8.35;;;3.17;;
77705;SDS011;66874;45.274;5.880;2023-04-25T05:38:47;10.90;;;3.15;;
77705;SDS011;66874;45.274;5.880;2023-04-25T05:41:12;6.43;;;2.80;;
77705;SDS011;66874;45.274;5.880;2023-04-25T05:43:38;9.10;;;2.85;;
77705;SDS011;66874;45.274;5.880;2023-04-25T05:46:03;7.55;;;3.10;;
77705;SDS011;66874;45.274;5.880;2023-04-25T05:48:28;4.53;;;2.63;;
77705;SDS011;66874;45.274;5.880;2023-04-25T05:50:55;5.88;;;2.90;;
77705;SDS011;66874;45.274;5.880;2023-04-25T05:53:20;5.30;;;2.67;;
77705;SDS011;66874;45.274;5.880;2023-04-25T05:55:46;6.40;;;2.83;;
77705;SDS011;66874;45.274;5.880;2023-04-25T05:58:12;5.38;;;2.67;;
77705;SDS011;66874;45.274;5.880;2023-04-25T06:00:37;4.75;;;3.08;;
77705;SDS011;66874;45.274;5.880;2023-04-25T06:03:03;8.68;;;3.25;;
77705;SDS011;66874;45.274;5.880;2023-04-25T06:05:29;9.13;;;3.20;;
77705;SDS011;66874;45.274;5.880;2023-04-25T06:07:54;4.60;;;3.20;;
77705;SDS011;66874;45.274;5.880;2023-04-25T06:10:20;6.25;;;3.58;;
77705;SDS011;66874;45.274;5.880;2023-04-25T06:12:45;12.13;;;3.90;;
77705;SDS011;66874;45.274;5.880;2023-04-25T06:15:11;7.13;;;3.90;;
77705;SDS011;66874;45.274;5.880;2023-04-25T06:17:36;5.90;;;4.03;;
77705;SDS011;66874;45.274;5.880;2023-04-25T06:20:02;14.15;;;4.10;;
77705;SDS011;66874;45.274;5.880;2023-04-25T06:22:28;15.83;;;3.73;;
77705;SDS011;66874;45.274;5.880;2023-04-25T06:24:54;8.10;;;3.38;;
77705;SDS011;66874;45.274;5.880;2023-04-25T06:27:22;7.30;;;3.45;;
77705;SDS011;66874;45.274;5.880;2023-04-25T06:29:47;6.00;;;3.35;;
77705;SDS011;66874;45.274;5.880;2023-04-25T06:32:13;4.70;;;3.60;;
77705;SDS011;66874;45.274;5.880;2023-04-25T06:34:38;6.30;;;3.50;;
77705;SDS011;66874;45.274;5.880;2023-04-25T06:37:03;6.93;;;3.60;;
77705;SDS011;66874;45.274;5.880;2023-04-25T06:39:29;7.40;;;3.40;;
77705;SDS011;66874;45.274;5.880;2023-04-25T06:41:55;5.03;;;3.10;;
77705;SDS011;66874;45.274;5.880;2023-04-25T06:44:20;9.73;;;4.45;;
77705;SDS011;66874;45.274;5.880;2023-04-25T06:49:13;7.95;;;4.43;;
77705;SDS011;66874;45.274;5.880;2023-04-25T06:51:38;7.45;;;4.00;;
77705;SDS011;66874;45.274;5.880;2023-04-25T06:54:04;7.13;;;2.97;;
77705;SDS011;66874;45.274;5.880;2023-04-25T06:56:30;9.43;;;4.80;;
77705;SDS011;66874;45.274;5.880;2023-04-25T06:58:55;8.35;;;3.22;;
77705;SDS011;66874;45.274;5.880;2023-04-25T07:01:21;7.43;;;2.50;;
77705;SDS011;66874;45.274;5.880;2023-04-25T07:03:46;4.80;;;3.08;;
77705;SDS011;66874;45.274;5.880;2023-04-25T07:06:12;4.20;;;2.45;;
77705;SDS011;66874;45.274;5.880;2023-04-25T07:08:37;8.02;;;3.25;;
77705;SDS011;66874;45.274;5.880;2023-04-25T07:11:02;7.72;;;3.20;;
77705;SDS011;66874;45.274;5.880;2023-04-25T07:13:28;9.38;;;3.85;;
77705;SDS011;66874;45.274;5.880;2023-04-25T07:15:53;4.78;;;2.80;;
77705;SDS011;66874;45.274;5.880;2023-04-25T07:18:19;5.72;;;3.80;;
77705;SDS011;66874;45.274;5.880;2023-04-25T07:20:44;6.20;;;3.03;;
77705;SDS011;66874;45.274;5.880;2023-04-25T07:23:09;5.05;;;3.70;;
77705;SDS011;66874;45.274;5.880;2023-04-25T07:25:35;8.23;;;3.53;;
77705;SDS011;66874;45.274;5.880;2023-04-25T07:28:00;4.80;;;3.00;;
77705;SDS011;66874;45.274;5.880;2023-04-25T07:30:25;3.72;;;3.20;;
77705;SDS011;66874;45.274;5.880;2023-04-25T07:32:51;4.35;;;2.97;;
77705;SDS011;66874;45.274;5.880;2023-04-25T07:35:16;6.25;;;3.00;;
77705;SDS011;66874;45.274;5.880;2023-04-25T07:37:42;5.50;;;3.20;;
77705;SDS011;66874;45.274;5.880;2023-04-25T07:40:08;4.07;;;3.15;;
77705;SDS011;66874;45.274;5.880;2023-04-25T07:42:34;6.20;;;3.53;;
77705;SDS011;66874;45.274;5.880;2023-04-25T07:45:00;6.95;;;3.42;;
77705;SDS011;66874;45.274;5.880;2023-04-25T07:47:25;6.68;;;2.97;;
77705;SDS011;66874;45.274;5.880;2023-04-25T07:49:51;6.68;;;3.20;;
77705;SDS011;66874;45.274;5.880;2023-04-25T07:52:16;5.00;;;2.88;;
77705;SDS011;66874;45.274;5.880;2023-04-25T07:54:42;5.95;;;3.17;;
77705;SDS011;66874;45.274;5.880;2023-04-25T07:57:07;3.22;;;2.83;;
77705;SDS011;66874;45.274;5.880;2023-04-25T07:59:33;6.22;;;3.05;;
77705;SDS011;66874;45.274;5.880;2023-04-25T08:01:59;5.22;;;3.97;;
77705;SDS011;66874;45.274;5.880;2023-04-25T08:04:25;6.88;;;4.30;;
77705;SDS011;66874;45.274;5.880;2023-04-25T08:06:51;8.38;;;2.90;;
77705;SDS011;66874;45.274;5.880;2023-04-25T08:09:18;5.88;;;3.25;;
77705;SDS011;66874;45.274;5.880;2023-04-25T08:11:44;5.72;;;3.45;;
77705;SDS011;66874;45.274;5.880;2023-04-25T08:14:11;9.77;;;3.25;;
77705;SDS011;66874;45.274;5.880;2023-04-25T08:16:37;7.25;;;3.67;;
77705;SDS011;66874;45.274;5.880;2023-04-25T08:19:03;8.57;;;3.40;;
77705;SDS011;66874;45.274;5.880;2023-04-25T08:21:28;7.72;;;3.50;;
77705;SDS011;66874;45.274;5.880;2023-04-25T08:23:53;9.60;;;3.72;;
77705;SDS011;66874;45.274;5.880;2023-04-25T08:26:19;6.05;;;2.90;;
77705;SDS011;66874;45.274;5.880;2023-04-25T08:28:45;4.70;;;2.83;;
77705;SDS011;66874;45.274;5.880;2023-04-25T08:31:11;11.15;;;3.58;;
77705;SDS011;66874;45.274;5.880;2023-04-25T08:33:36;13.75;;;3.25;;
77705;SDS011;66874;45.274;5.880;2023-04-25T08:36:02;6.40;;;3.17;;
77705;SDS011;66874;45.274;5.880;2023-04-25T08:38:28;7.38;;;3.63;;
77705;SDS011;66874;45.274;5.880;2023-04-25T08:40:53;11.85;;;3.13;;
77705;SDS011;66874;45.274;5.880;2023-04-25T08:43:20;3.83;;;2.53;;
77705;SDS011;66874;45.274;5.880;2023-04-25T08:45:45;9.25;;;3.38;;
77705;SDS011;66874;45.274;5.880;2023-04-25T08:48:12;6.88;;;2.88;;
77705;SDS011;66874;45.274;5.880;2023-04-25T08:53:21;5.22;;;3.03;;
77705;SDS011;66874;45.274;5.880;2023-04-25T08:55:50;8.15;;;3.63;;
77705;SDS011;66874;45.274;5.880;2023-04-25T08:58:18;8.40;;;3.42;;
77705;SDS011;66874;45.274;5.880;2023-04-25T09:00:45;8.13;;;3.70;;
77705;SDS011;66874;45.274;5.880;2023-04-25T09:03:11;9.00;;;3.10;;
77705;SDS011;66874;45.274;5.880;2023-04-25T09:05:37;9.95;;;3.60;;
77705;SDS011;66874;45.274;5.880;2023-04-25T09:08:02;9.75;;;4.05;;
77705;SDS011;66874;45.274;5.880;2023-04-25T09:10:28;8.30;;;3.35;;
77705;SDS011;66874;45.274;5.880;2023-04-25T09:13:06;5.97;;;3.08;;
77705;SDS011;66874;45.274;5.880;2023-04-25T09:15:49;5.90;;;3.20;;
77705;SDS011;66874;45.274;5.880;2023-04-25T09:18:26;13.32;;;4.30;;
77705;SDS011;66874;45.274;5.880;2023-04-25T09:20:53;8.93;;;3.15;;
77705;SDS011;66874;45.274;5.880;2023-04-25T09:23:20;6.95;;;3.38;;
77705;SDS011;66874;45.274;5.880;2023-04-25T09:25:47;4.47;;;3.15;;
77705;SDS011;66874;45.274;5.880;2023-04-25T09:28:13;5.90;;;3.17;;
77705;SDS011;66874;45.274;5.880;2023-04-25T09:30:39;9.05;;;3.30;;
77705;SDS011;66874;45.274;5.880;2023-04-25T09:33:07;5.15;;;2.83;;
77705;SDS011;66874;45.274;5.880;2023-04-25T09:35:37;6.15;;;3.30;;
77705;SDS011;66874;45.274;5.880;2023-04-25T09:38:11;5.93;;;3.17;;
77705;SDS011;66874;45.274;5.880;2023-04-25T09:40:42;10.23;;;3.83;;
77705;SDS011;66874;45.274;5.880;2023-04-25T09:43:09;5.80;;;3.20;;
77705;SDS011;66874;45.274;5.880;2023-04-25T09:45:45;7.22;;;2.97;;
77705;SDS011;66874;45.274;5.880;2023-04-25T09:48:12;6.72;;;3.30;;
77705;SDS011;66874;45.274;5.880;2023-04-25T09:53:34;4.10;;;3.03;;
77705;SDS011;66874;45.274;5.880;2023-04-25T09:56:03;5.88;;;3.05;;
77705;SDS011;66874;45.274;5.880;2023-04-25T09:58:30;4.50;;;2.70;;
77705;SDS011;66874;45.274;5.880;2023-04-25T10:00:58;5.07;;;2.47;;
77705;SDS011;66874;45.274;5.880;2023-04-25T10:03:26;3.58;;;1.92;;
77705;SDS011;66874;45.274;5.880;2023-04-25T10:05:54;6.15;;;2.40;;
77705;SDS011;66874;45.274;5.880;2023-04-25T10:08:21;4.47;;;2.55;;
77705;SDS011;66874;45.274;5.880;2023-04-25T10:10:47;8.32;;;2.92;;
77705;SDS011;66874;45.274;5.880;2023-04-25T10:13:15;4.28;;;2.72;;
77705;SDS011;66874;45.274;5.880;2023-04-25T10:15:41;6.38;;;3.08;;
77705;SDS011;66874;45.274;5.880;2023-04-25T10:18:07;6.63;;;3.47;;
77705;SDS011;66874;45.274;5.880;2023-04-25T10:20:33;6.60;;;2.30;;
77705;SDS011;66874;45.274;5.880;2023-04-25T10:23:03;5.03;;;2.08;;
77705;SDS011;66874;45.274;5.880;2023-04-25T10:25:36;4.43;;;2.10;;
77705;SDS011;66874;45.274;5.880;2023-04-25T10:28:03;4.65;;;2.10;;
77705;SDS011;66874;45.274;5.880;2023-04-25T10:30:29;3.15;;;2.00;;
77705;SDS011;66874;45.274;5.880;2023-04-25T10:32:55;3.25;;;2.13;;
77705;SDS011;66874;45.274;5.880;2023-04-25T10:35:24;4.75;;;2.10;;
77705;SDS011;66874;45.274;5.880;2023-04-25T10:38:03;3.58;;;2.00;;
77705;SDS011;66874;45.274;5.880;2023-04-25T10:40:29;2.13;;;1.88;;
77705;SDS011;66874;45.274;5.880;2023-04-25T10:42:57;3.45;;;1.95;;
77705;SDS011;66874;45.274;5.880;2023-04-25T10:45:57;4.40;;;1.75;;
77705;SDS011;66874;45.274;5.880;2023-04-25T10:48:25;10.93;;;2.47;;
77705;SDS011;66874;45.274;5.880;2023-04-25T10:51:07;4.97;;;2.55;;
77705;SDS011;66874;45.274;5.880;2023-04-25T10:53:34;5.18;;;2.45;;
77705;SDS011;66874;45.274;5.880;2023-04-25T10:56:00;5.72;;;2.47;;
77705;SDS011;66874;45.274;5.880;2023-04-25T10:58:34;3.38;;;2.03;;
77705;SDS011;66874;45.274;5.880;2023-04-25T11:00:59;4.50;;;1.95;;
77705;SDS011;66874;45.274;5.880;2023-04-25T11:03:26;3.63;;;2.00;;
77705;SDS011;66874;45.274;5.880;2023-04-25T11:05:51;4.72;;;2.20;;
77705;SDS011;66874;45.274;5.880;2023-04-25T11:08:18;3.63;;;1.77;;
77705;SDS011;66874;45.274;5.880;2023-04-25T11:10:58;4.50;;;1.92;;
77705;SDS011;66874;45.274;5.880;2023-04-25T11:13:28;3.17;;;2.08;;
77705;SDS011;66874;45.274;5.880;2023-04-25T11:15:55;5.40;;;2.33;;
77705;SDS011;66874;45.274;5.880;2023-04-25T11:18:20;5.93;;;3.33;;
77705;SDS011;66874;45.274;5.880;2023-04-25T11:20:46;3.90;;;2.45;;
77705;SDS011;66874;45.274;5.880;2023-04-25T11:25:38;4.82;;;1.77;;
77705;SDS011;66874;45.274;5.880;2023-04-25T11:28:04;3.42;;;2.00;;
77705;SDS011;66874;45.274;5.880;2023-04-25T11:30:29;3.28;;;1.60;;
77705;SDS011;66874;45.274;5.880;2023-04-25T11:32:57;5.65;;;1.73;;
77705;SDS011;66874;45.274;5.880;2023-04-25T11:35:23;6.22;;;1.92;;
77705;SDS011;66874;45.274;5.880;2023-04-25T11:37:50;1.73;;;1.63;;
77705;SDS011;66874;45.274;5.880;2023-04-25T11:40:16;5.15;;;1.67;;
77705;SDS011;66874;45.274;5.880;2023-04-25T11:42:45;2.83;;;1.85;;
77705;SDS011;66874;45.274;5.880;2023-04-25T11:45:12;4.65;;;2.08;;
77705;SDS011;66874;45.274;5.880;2023-04-25T11:47:38;3.10;;;1.80;;
77705;SDS011;66874;45.274;5.880;2023-04-25T11:50:05;5.78;;;1.58;;
77705;SDS011;66874;45.274;5.880;2023-04-25T11:52:42;3.22;;;1.70;;
77705;SDS011;66874;45.274;5.880;2023-04-25T11:55:15;4.55;;;1.80;;
77705;SDS011;66874;45.274;5.880;2023-04-25T11:57:42;5.55;;;2.00;;
77705;SDS011;66874;45.274;5.880;2023-04-25T12:00:09;2.75;;;1.80;;
77705;SDS011;66874;45.274;5.880;2023-04-25T12:02:36;3.25;;;1.73;;
77705;SDS011;66874;45.274;5.880;2023-04-25T12:05:02;2.72;;;1.75;;
77705;SDS011;66874;45.274;5.880;2023-04-25T12:07:31;3.67;;;1.85;;
77705;SDS011;66874;45.274;5.880;2023-04-25T12:09:56;6.85;;;1.60;;
77705;SDS011;66874;45.274;5.880;2023-04-25T12:12:22;5.10;;;2.03;;
77705;SDS011;66874;45.274;5.880;2023-04-25T12:14:52;2.95;;;1.60;;
77705;SDS011;66874;45.274;5.880;2023-04-25T12:19:46;3.08;;;1.75;;
77705;SDS011;66874;45.274;5.880;2023-04-25T12:22:18;4.55;;;2.55;;
77705;SDS011;66874;45.274;5.880;2023-04-25T12:24:48;2.78;;;1.80;;
77705;SDS011;66874;45.274;5.880;2023-04-25T12:27:14;1.90;;;1.60;;
77705;SDS011;66874;45.274;5.880;2023-04-25T12:29:49;3.38;;;2.05;;
77705;SDS011;66874;45.274;5.880;2023-04-25T12:32:16;3.13;;;2.08;;
77705;SDS011;66874;45.274;5.880;2023-04-25T12:34:42;2.45;;;1.90;;
77705;SDS011;66874;45.274;5.880;2023-04-25T12:37:08;2.55;;;1.50;;
77705;SDS011;66874;45.274;5.880;2023-04-25T12:39:33;5.82;;;1.88;;
77705;SDS011;66874;45.274;5.880;2023-04-25T12:41:58;4.97;;;1.90;;
77705;SDS011;66874;45.274;5.880;2023-04-25T12:44:24;2.60;;;1.90;;
77705;SDS011;66874;45.274;5.880;2023-04-25T12:46:50;3.38;;;1.45;;
77705;SDS011;66874;45.274;5.880;2023-04-25T12:49:15;5.82;;;1.70;;
77705;SDS011;66874;45.274;5.880;2023-04-25T12:51:41;4.40;;;2.20;;
77705;SDS011;66874;45.274;5.880;2023-04-25T12:54:06;6.50;;;1.67;;
77705;SDS011;66874;45.274;5.880;2023-04-25T12:56:33;6.57;;;2.20;;
77705;SDS011;66874;45.274;5.880;2023-04-25T12:59:01;3.28;;;1.52;;
77705;SDS011;66874;45.274;5.880;2023-04-25T13:01:30;7.05;;;2.03;;
77705;SDS011;66874;45.274;5.880;2023-04-25T13:03:55;3.90;;;2.00;;
77705;SDS011;66874;45.274;5.880;2023-04-25T13:06:21;3.90;;;1.75;;
77705;SDS011;66874;45.274;5.880;2023-04-25T13:08:47;2.40;;;1.70;;
77705;SDS011;66874;45.274;5.880;2023-04-25T13:11:12;7.75;;;1.73;;
77705;SDS011;66874;45.274;5.880;2023-04-25T13:13:39;3.72;;;1.92;;
77705;SDS011;66874;45.274;5.880;2023-04-25T13:16:05;4.68;;;1.65;;
77705;SDS011;66874;45.274;5.880;2023-04-25T13:18:32;3.33;;;1.80;;
77705;SDS011;66874;45.274;5.880;2023-04-25T13:20:58;3.22;;;1.67;;
77705;SDS011;66874;45.274;5.880;2023-04-25T13:23:25;3.17;;;1.38;;
77705;SDS011;66874;45.274;5.880;2023-04-25T13:28:17;2.05;;;1.55;;
77705;SDS011;66874;45.274;5.880;2023-04-25T13:30:43;3.03;;;1.40;;
77705;SDS011;66874;45.274;5.880;2023-04-25T13:33:08;3.58;;;1.73;;
77705;SDS011;66874;45.274;5.880;2023-04-25T13:35:35;2.72;;;1.88;;
77705;SDS011;66874;45.274;5.880;2023-04-25T13:38:02;4.10;;;1.75;;
77705;SDS011;66874;45.274;5.880;2023-04-25T13:40:28;2.83;;;1.63;;
77705;SDS011;66874;45.274;5.880;2023-04-25T13:42:54;2.78;;;1.88;;
77705;SDS011;66874;45.274;5.880;2023-04-25T13:45:21;3.85;;;2.05;;
77705;SDS011;66874;45.274;5.880;2023-04-25T13:47:47;3.42;;;1.23;;
77705;SDS011;66874;45.274;5.880;2023-04-25T13:50:12;3.53;;;1.25;;
77705;SDS011;66874;45.274;5.880;2023-04-25T13:52:38;3.78;;;1.65;;
77705;SDS011;66874;45.274;5.880;2023-04-25T13:55:04;2.90;;;1.52;;
77705;SDS011;66874;45.274;5.880;2023-04-25T13:57:32;2.05;;;1.55;;
77705;SDS011;66874;45.274;5.880;2023-04-25T13:59:57;4.47;;;1.75;;
77705;SDS011;66874;45.274;5.880;2023-04-25T14:02:23;2.42;;;1.48;;
77705;SDS011;66874;45.274;5.880;2023-04-25T14:04:48;3.30;;;1.50;;
77705;SDS011;66874;45.274;5.880;2023-04-25T14:07:14;2.58;;;1.45;;
77705;SDS011;66874;45.274;5.880;2023-04-25T14:09:43;4.18;;;1.55;;
77705;SDS011;66874;45.274;5.880;2023-04-25T14:12:08;2.92;;;1.60;;
77705;SDS011;66874;45.274;5.880;2023-04-25T14:14:34;3.55;;;1.67;;
77705;SDS011;66874;45.274;5.880;2023-04-25T14:16:59;3.53;;;1.73;;
77705;SDS011;66874;45.274;5.880;2023-04-25T14:19:25;3.05;;;1.90;;
77705;SDS011;66874;45.274;5.880;2023-04-25T14:21:50;3.45;;;2.00;;
77705;SDS011;66874;45.274;5.880;2023-04-25T14:24:16;3.55;;;1.58;;
77705;SDS011;66874;45.274;5.880;2023-04-25T14:26:41;2.92;;;1.50;;
77705;SDS011;66874;45.274;5.880;2023-04-25T14:29:07;4.35;;;1.63;;
77705;SDS011;66874;45.274;5.880;2023-04-25T14:31:36;2.85;;;1.50;;
77705;SDS011;66874;45.274;5.880;2023-04-25T14:34:02;3.05;;;1.35;;
77705;SDS011;66874;45.274;5.880;2023-04-25T14:36:28;3.42;;;1.50;;
77705;SDS011;66874;45.274;5.880;2023-04-25T14:38:53;3.30;;;2.00;;
77705;SDS011;66874;45.274;5.880;2023-04-25T14:41:19;4.22;;;1.40;;
77705;SDS011;66874;45.274;5.880;2023-04-25T14:43:44;3.38;;;1.60;;
77705;SDS011;66874;45.274;5.880;2023-04-25T14:46:10;2.50;;;1.33;;
77705;SDS011;66874;45.274;5.880;2023-04-25T14:48:35;4.00;;;1.85;;
77705;SDS011;66874;45.274;5.880;2023-04-25T14:51:01;4.82;;;1.92;;
77705;SDS011;66874;45.274;5.880;2023-04-25T14:53:27;3.08;;;1.65;;
77705;SDS011;66874;45.274;5.880;2023-04-25T14:55:52;2.45;;;1.45;;
77705;SDS011;66874;45.274;5.880;2023-04-25T14:58:18;2.25;;;1.83;;
77705;SDS011;66874;45.274;5.880;2023-04-25T15:00:44;2.97;;;1.60;;
77705;SDS011;66874;45.274;5.880;2023-04-25T15:03:10;5.72;;;1.63;;
77705;SDS011;66874;45.274;5.880;2023-04-25T15:05:38;4.15;;;1.60;;
77705;SDS011;66874;45.274;5.880;2023-04-25T15:08:04;8.68;;;2.13;;
77705;SDS011;66874;45.274;5.880;2023-04-25T15:10:29;3.45;;;1.50;;
77705;SDS011;66874;45.274;5.880;2023-04-25T15:12:55;3.65;;;1.30;;
77705;SDS011;66874;45.274;5.880;2023-04-25T15:15:20;4.35;;;1.63;;
77705;SDS011;66874;45.274;5.880;2023-04-25T15:17:46;4.30;;;1.40;;
77705;SDS011;66874;45.274;5.880;2023-04-25T15:20:12;2.10;;;1.33;;
77705;SDS011;66874;45.274;5.880;2023-04-25T15:22:38;7.63;;;1.95;;
77705;SDS011;66874;45.274;5.880;2023-04-25T15:25:05;7.13;;;1.63;;
77705;SDS011;66874;45.274;5.880;2023-04-25T15:27:32;4.90;;;1.98;;
77705;SDS011;66874;45.274;5.880;2023-04-25T15:29:59;5.05;;;1.70;;
77705;SDS011;66874;45.274;5.880;2023-04-25T15:32:25;4.30;;;1.50;;
77705;SDS011;66874;45.274;5.880;2023-04-25T15:34:50;4.88;;;1.60;;
77705;SDS011;66874;45.274;5.880;2023-04-25T15:37:16;3.05;;;1.35;;
77705;SDS011;66874;45.274;5.880;2023-04-25T15:39:43;1.33;;;1.08;;
77705;SDS011;66874;45.274;5.880;2023-04-25T15:42:09;3.60;;;1.65;;
77705;SDS011;66874;45.274;5.880;2023-04-25T15:44:34;2.63;;;1.23;;
77705;SDS011;66874;45.274;5.880;2023-04-25T15:47:00;3.60;;;1.27;;
77705;SDS011;66874;45.274;5.880;2023-04-25T15:49:25;2.33;;;1.40;;
77705;SDS011;66874;45.274;5.880;2023-04-25T15:51:52;4.95;;;1.23;;
77705;SDS011;66874;45.274;5.880;2023-04-25T15:54:18;2.40;;;1.35;;
77705;SDS011;66874;45.274;5.880;2023-04-25T15:56:43;2.63;;;1.33;;
77705;SDS011;66874;45.274;5.880;2023-04-25T15:59:10;2.92;;;1.20;;
77705;SDS011;66874;45.274;5.880;2023-04-25T16:01:35;2.08;;;1.30;;
77705;SDS011;66874;45.274;5.880;2023-04-25T16:04:02;2.60;;;1.20;;
77705;SDS011;66874;45.274;5.880;2023-04-25T16:06:27;3.60;;;1.58;;
77705;SDS011;66874;45.274;5.880;2023-04-25T16:08:54;4.35;;;1.40;;
77705;SDS011;66874;45.274;5.880;2023-04-25T16:11:20;3.60;;;1.40;;
77705;SDS011;66874;45.274;5.880;2023-04-25T16:13:45;3.25;;;1.63;;
77705;SDS011;66874;45.274;5.880;2023-04-25T16:16:11;2.47;;;1.45;;
77705;SDS011;66874;45.274;5.880;2023-04-25T16:18:36;4.82;;;2.05;;
77705;SDS011;66874;45.274;5.880;2023-04-25T16:21:02;4.22;;;1.75;;
77705;SDS011;66874;45.274;5.880;2023-04-25T16:23:27;3.90;;;1.75;;
77705;SDS011;66874;45.274;5.880;2023-04-25T16:25:53;2.67;;;1.52;;
77705;SDS011;66874;45.274;5.880;2023-04-25T16:28:19;3.03;;;1.60;;
77705;SDS011;66874;45.274;5.880;2023-04-25T16:30:44;4.35;;;1.55;;
77705;SDS011;66874;45.274;5.880;2023-04-25T16:33:10;3.13;;;1.70;;
77705;SDS011;66874;45.274;5.880;2023-04-25T16:35:35;1.60;;;1.17;;
77705;SDS011;66874;45.274;5.880;2023-04-25T16:38:01;2.58;;;1.50;;
77705;SDS011;66874;45.274;5.880;2023-04-25T16:40:26;7.07;;;1.90;;
77705;SDS011;66874;45.274;5.880;2023-04-25T16:42:52;2.97;;;1.40;;
77705;SDS011;66874;45.274;5.880;2023-04-25T16:45:19;4.22;;;1.65;;
77705;SDS011;66874;45.274;5.880;2023-04-25T16:47:45;4.93;;;1.30;;
77705;SDS011;66874;45.274;5.880;2023-04-25T16:50:13;2.63;;;1.40;;
77705;SDS011;66874;45.274;5.880;2023-04-25T16:52:39;3.22;;;1.40;;
77705;SDS011;66874;45.274;5.880;2023-04-25T16:55:05;4.07;;;1.40;;
77705;SDS011;66874;45.274;5.880;2023-04-25T16:57:32;2.38;;;1.48;;
77705;SDS011;66874;45.274;5.880;2023-04-25T16:59:58;6.20;;;1.48;;
77705;SDS011;66874;45.274;5.880;2023-04-25T17:02:24;2.55;;;1.33;;
77705;SDS011;66874;45.274;5.880;2023-04-25T17:04:49;4.18;;;1.70;;
77705;SDS011;66874;45.274;5.880;2023-04-25T17:07:14;4.75;;;1.63;;
77705;SDS011;66874;45.274;5.880;2023-04-25T17:09:40;3.15;;;1.92;;
77705;SDS011;66874;45.274;5.880;2023-04-25T17:12:06;3.58;;;1.45;;
77705;SDS011;66874;45.274;5.880;2023-04-25T17:14:32;2.97;;;1.92;;
77705;SDS011;66874;45.274;5.880;2023-04-25T17:16:59;4.00;;;1.98;;
77705;SDS011;66874;45.274;5.880;2023-04-25T17:19:25;3.42;;;1.65;;
77705;SDS011;66874;45.274;5.880;2023-04-25T17:21:52;3.77;;;1.60;;
77705;SDS011;66874;45.274;5.880;2023-04-25T17:24:17;3.45;;;1.90;;
77705;SDS011;66874;45.274;5.880;2023-04-25T17:29:10;4.50;;;1.80;;
77705;SDS011;66874;45.274;5.880;2023-04-25T17:31:36;5.13;;;1.30;;
77705;SDS011;66874;45.274;5.880;2023-04-25T17:34:01;3.35;;;1.73;;
77705;SDS011;66874;45.274;5.880;2023-04-25T17:36:28;5.70;;;1.48;;
77705;SDS011;66874;45.274;5.880;2023-04-25T17:38:54;5.53;;;1.80;;
77705;SDS011;66874;45.274;5.880;2023-04-25T17:41:20;4.15;;;1.67;;
77705;SDS011;66874;45.274;5.880;2023-04-25T17:43:46;2.67;;;1.25;;
77705;SDS011;66874;45.274;5.880;2023-04-25T17:46:11;3.38;;;1.40;;
77705;SDS011;66874;45.274;5.880;2023-04-25T17:48:37;3.05;;;1.45;;
77705;SDS011;66874;45.274;5.880;2023-04-25T17:51:02;2.85;;;1.23;;
77705;SDS011;66874;45.274;5.880;2023-04-25T17:53:28;4.20;;;2.08;;
77705;SDS011;66874;45.274;5.880;2023-04-25T17:55:53;4.55;;;1.50;;
77705;SDS011;66874;45.274;5.880;2023-04-25T17:58:20;3.22;;;2.13;;
77705;SDS011;66874;45.274;5.880;2023-04-25T18:00:45;4.53;;;1.75;;
77705;SDS011;66874;45.274;5.880;2023-04-25T18:03:11;4.90;;;2.20;;
77705;SDS011;66874;45.274;5.880;2023-04-25T18:05:36;4.93;;;1.77;;
77705;SDS011;66874;45.274;5.880;2023-04-25T18:08:03;3.42;;;1.80;;
77705;SDS011;66874;45.274;5.880;2023-04-25T18:10:29;2.83;;;1.90;;
77705;SDS011;66874;45.274;5.880;2023-04-25T18:12:55;3.58;;;1.80;;
77705;SDS011;66874;45.274;5.880;2023-04-25T18:15:20;3.95;;;1.73;;
77705;SDS011;66874;45.274;5.880;2023-04-25T18:17:47;5.15;;;1.70;;
77705;SDS011;66874;45.274;5.880;2023-04-25T18:20:12;4.55;;;1.80;;
77705;SDS011;66874;45.274;5.880;2023-04-25T18:22:42;4.35;;;1.80;;
77705;SDS011;66874;45.274;5.880;2023-04-25T18:25:08;3.47;;;1.40;;
77705;SDS011;66874;45.274;5.880;2023-04-25T18:27:35;4.70;;;1.92;;
77705;SDS011;66874;45.274;5.880;2023-04-25T18:30:03;2.95;;;1.38;;
77705;SDS011;66874;45.274;5.880;2023-04-25T18:32:33;1.98;;;1.20;;
77705;SDS011;66874;45.274;5.880;2023-04-25T18:34:58;5.65;;;1.73;;
77705;SDS011;66874;45.274;5.880;2023-04-25T18:37:24;3.75;;;1.42;;
77705;SDS011;66874;45.274;5.880;2023-04-25T18:39:49;2.58;;;1.58;;
77705;SDS011;66874;45.274;5.880;2023-04-25T18:42:15;1.85;;;1.42;;
77705;SDS011;66874;45.274;5.880;2023-04-25T18:44:41;3.47;;;1.45;;
77705;SDS011;66874;45.274;5.880;2023-04-25T18:47:09;5.10;;;1.48;;
77705;SDS011;66874;45.274;5.880;2023-04-25T18:49:37;2.22;;;1.48;;
77705;SDS011;66874;45.274;5.880;2023-04-25T18:52:02;3.63;;;1.40;;
77705;SDS011;66874;45.274;5.880;2023-04-25T18:54:28;5.60;;;2.20;;
77705;SDS011;66874;45.274;5.880;2023-04-25T18:56:53;3.47;;;1.52;;
77705;SDS011;66874;45.274;5.880;2023-04-25T19:01:46;5.68;;;1.42;;
77705;SDS011;66874;45.274;5.880;2023-04-25T19:04:13;2.10;;;1.40;;
77705;SDS011;66874;45.274;5.880;2023-04-25T19:06:39;2.47;;;1.20;;
77705;SDS011;66874;45.274;5.880;2023-04-25T19:09:05;4.50;;;1.75;;
77705;SDS011;66874;45.274;5.880;2023-04-25T19:11:32;6.65;;;1.80;;
77705;SDS011;66874;45.274;5.880;2023-04-25T19:13:57;4.28;;;1.40;;
77705;SDS011;66874;45.274;5.880;2023-04-25T19:16:23;4.43;;;1.38;;
77705;SDS011;66874;45.274;5.880;2023-04-25T19:18:52;3.75;;;1.73;;
77705;SDS011;66874;45.274;5.880;2023-04-25T19:21:18;3.83;;;1.58;;
77705;SDS011;66874;45.274;5.880;2023-04-25T19:23:43;4.82;;;1.50;;
77705;SDS011;66874;45.274;5.880;2023-04-25T19:26:09;2.40;;;1.40;;
77705;SDS011;66874;45.274;5.880;2023-04-25T19:28:34;2.92;;;1.45;;
77705;SDS011;66874;45.274;5.880;2023-04-25T19:31:00;4.65;;;2.25;;
77705;SDS011;66874;45.274;5.880;2023-04-25T19:33:26;8.02;;;1.95;;
77705;SDS011;66874;45.274;5.880;2023-04-25T19:35:51;9.10;;;2.17;;
77705;SDS011;66874;45.274;5.880;2023-04-25T19:38:17;6.78;;;2.17;;
77705;SDS011;66874;45.274;5.880;2023-04-25T19:40:42;4.45;;;2.40;;
77705;SDS011;66874;45.274;5.880;2023-04-25T19:43:08;2.88;;;2.22;;
77705;SDS011;66874;45.274;5.880;2023-04-25T19:45:33;4.43;;;2.40;;
77705;SDS011;66874;45.274;5.880;2023-04-25T19:47:59;3.92;;;2.03;;
77705;SDS011;66874;45.274;5.880;2023-04-25T19:52:52;2.85;;;1.90;;
77705;SDS011;66874;45.274;5.880;2023-04-25T19:55:18;4.95;;;2.28;;
77705;SDS011;66874;45.274;5.880;2023-04-25T19:57:43;3.97;;;1.90;;
77705;SDS011;66874;45.274;5.880;2023-04-25T20:00:10;4.80;;;2.17;;
77705;SDS011;66874;45.274;5.880;2023-04-25T20:02:38;4.45;;;1.80;;
77705;SDS011;66874;45.274;5.880;2023-04-25T20:05:05;3.75;;;2.00;;
77705;SDS011;66874;45.274;5.880;2023-04-25T20:07:31;2.95;;;1.98;;